sensor_id;sensor_type;location;lat;lon;timestamp;P1;durP1;ratioP1;P2;durP2;ratioP2
3841;SDS011;1936;47.074;15.336;2024-02-21T00:00:56;6.75;;;4.07;;
3841;SDS011;1936;47.074;15.336;2024-02-21T00:02:58;8.43;;;4.40;;
3841;SDS011;1936;47.074;15.336;2024-02-21T00:05:04;10.95;;;5.72;;
3841;SDS011;1936;47.074;15.336;2024-02-21T00:07:08;13.40;;;5.93;;
3841;SDS011;1936;47.074;15.336;2024-02-21T00:09:11;10.82;;;5.38;;
3841;SDS011;1936;47.074;15.336;2024-02-21T00:11:14;6.32;;;4.50;;
3841;SDS011;1936;47.074;15.336;2024-02-21T00:13:17;8.85;;;4.38;;
3841;SDS011;1936;47.074;15.336;2024-02-21T00:15:21;6.82;;;4.35;;
3841;SDS011;1936;47.074;15.336;2024-02-21T00:17:24;8.75;;;3.90;;
3841;SDS011;1936;47.074;15.336;2024-02-21T00:19:28;3.35;;;2.85;;
3841;SDS011;1936;47.074;15.336;2024-02-21T00:21:32;7.35;;;1.75;;
3841;SDS011;1936;47.074;15.336;2024-02-21T00:23:35;2.60;;;1.35;;
3841;SDS011;1936;47.074;15.336;2024-02-21T00:25:37;4.63;;;2.10;;
3841;SDS011;1936;47.074;15.336;2024-02-21T00:27:41;3.80;;;3.10;;
3841;SDS011;1936;47.074;15.336;2024-02-21T00:29:44;5.07;;;2.78;;
3841;SDS011;1936;47.074;15.336;2024-02-21T00:31:49;7.85;;;3.90;;
3841;SDS011;1936;47.074;15.336;2024-02-21T00:33:53;8.55;;;2.45;;
3841;SDS011;1936;47.074;15.336;2024-02-21T00:35:56;5.50;;;2.53;;
3841;SDS011;1936;47.074;15.336;2024-02-21T00:38:00;4.40;;;2.20;;
3841;SDS011;1936;47.074;15.336;2024-02-21T00:40:03;5.60;;;2.30;;
3841;SDS011;1936;47.074;15.336;2024-02-21T00:42:07;4.65;;;3.50;;
3841;SDS011;1936;47.074;15.336;2024-02-21T00:44:10;7.03;;;3.05;;
3841;SDS011;1936;47.074;15.336;2024-02-21T00:46:14;8.00;;;2.33;;
3841;SDS011;1936;47.074;15.336;2024-02-21T00:48:19;9.10;;;3.80;;
3841;SDS011;1936;47.074;15.336;2024-02-21T00:50:23;4.28;;;2.53;;
3841;SDS011;1936;47.074;15.336;2024-02-21T00:52:26;3.75;;;2.53;;
3841;SDS011;1936;47.074;15.336;2024-02-21T00:54:29;7.05;;;2.65;;
3841;SDS011;1936;47.074;15.336;2024-02-21T00:56:48;5.32;;;2.95;;
3841;SDS011;1936;47.074;15.336;2024-02-21T00:58:52;4.43;;;2.45;;
3841;SDS011;1936;47.074;15.336;2024-02-21T01:00:55;5.30;;;1.98;;
3841;SDS011;1936;47.074;15.336;2024-02-21T01:02:58;3.28;;;1.67;;
3841;SDS011;1936;47.074;15.336;2024-02-21T01:05:02;4.57;;;1.80;;
3841;SDS011;1936;47.074;15.336;2024-02-21T01:07:06;1.60;;;1.40;;
3841;SDS011;1936;47.074;15.336;2024-02-21T01:09:10;2.55;;;1.90;;
3841;SDS011;1936;47.074;15.336;2024-02-21T01:11:13;6.05;;;2.38;;
3841;SDS011;1936;47.074;15.336;2024-02-21T01:13:18;6.30;;;2.40;;
3841;SDS011;1936;47.074;15.336;2024-02-21T01:15:22;6.20;;;2.65;;
3841;SDS011;1936;47.074;15.336;2024-02-21T01:17:25;3.63;;;2.08;;
3841;SDS011;1936;47.074;15.336;2024-02-21T01:19:29;5.30;;;2.78;;
3841;SDS011;1936;47.074;15.336;2024-02-21T01:21:33;3.40;;;2.20;;
3841;SDS011;1936;47.074;15.336;2024-02-21T01:23:37;5.20;;;3.15;;
3841;SDS011;1936;47.074;15.336;2024-02-21T01:25:40;8.80;;;4.00;;
3841;SDS011;1936;47.074;15.336;2024-02-21T01:27:44;3.90;;;2.83;;
3841;SDS011;1936;47.074;15.336;2024-02-21T01:29:47;4.57;;;2.80;;
3841;SDS011;1936;47.074;15.336;2024-02-21T01:31:51;4.05;;;1.95;;
3841;SDS011;1936;47.074;15.336;2024-02-21T01:33:54;5.15;;;2.33;;
3841;SDS011;1936;47.074;15.336;2024-02-21T01:35:58;4.28;;;2.10;;
3841;SDS011;1936;47.074;15.336;2024-02-21T01:38:03;4.55;;;2.13;;
3841;SDS011;1936;47.074;15.336;2024-02-21T01:40:07;5.47;;;1.83;;
3841;SDS011;1936;47.074;15.336;2024-02-21T01:42:11;5.70;;;3.00;;
3841;SDS011;1936;47.074;15.336;2024-02-21T01:44:15;4.15;;;2.53;;
3841;SDS011;1936;47.074;15.336;2024-02-21T01:46:18;5.00;;;2.80;;
3841;SDS011;1936;47.074;15.336;2024-02-21T01:48:22;3.55;;;2.05;;
3841;SDS011;1936;47.074;15.336;2024-02-21T01:50:26;4.78;;;1.90;;
3841;SDS011;1936;47.074;15.336;2024-02-21T01:52:31;3.47;;;2.55;;
3841;SDS011;1936;47.074;15.336;2024-02-21T01:54:38;4.45;;;2.20;;
3841;SDS011;1936;47.074;15.336;2024-02-21T01:56:42;3.03;;;2.17;;
3841;SDS011;1936;47.074;15.336;2024-02-21T01:58:46;3.60;;;2.13;;
3841;SDS011;1936;47.074;15.336;2024-02-21T02:00:50;2.72;;;2.13;;
3841;SDS011;1936;47.074;15.336;2024-02-21T02:02:54;6.55;;;2.50;;
3841;SDS011;1936;47.074;15.336;2024-02-21T02:04:58;2.28;;;2.03;;
3841;SDS011;1936;47.074;15.336;2024-02-21T02:07:03;2.97;;;2.20;;
3841;SDS011;1936;47.074;15.336;2024-02-21T02:09:09;3.38;;;1.95;;
3841;SDS011;1936;47.074;15.336;2024-02-21T02:11:14;3.45;;;1.95;;
3841;SDS011;1936;47.074;15.336;2024-02-21T02:13:18;3.97;;;2.50;;
3841;SDS011;1936;47.074;15.336;2024-02-21T02:15:21;6.57;;;2.05;;
3841;SDS011;1936;47.074;15.336;2024-02-21T02:17:25;3.45;;;2.08;;
3841;SDS011;1936;47.074;15.336;2024-02-21T02:19:29;5.63;;;2.97;;
3841;SDS011;1936;47.074;15.336;2024-02-21T02:21:34;2.97;;;2.22;;
3841;SDS011;1936;47.074;15.336;2024-02-21T02:23:46;4.88;;;2.00;;
3841;SDS011;1936;47.074;15.336;2024-02-21T02:25:50;3.92;;;2.17;;
3841;SDS011;1936;47.074;15.336;2024-02-21T02:27:54;1.63;;;1.52;;
3841;SDS011;1936;47.074;15.336;2024-02-21T02:29:58;3.08;;;1.58;;
3841;SDS011;1936;47.074;15.336;2024-02-21T02:32:01;3.33;;;1.90;;
3841;SDS011;1936;47.074;15.336;2024-02-21T02:34:05;2.70;;;1.80;;
3841;SDS011;1936;47.074;15.336;2024-02-21T02:36:08;1.80;;;1.60;;
3841;SDS011;1936;47.074;15.336;2024-02-21T02:38:11;4.53;;;1.90;;
3841;SDS011;1936;47.074;15.336;2024-02-21T02:40:16;2.47;;;1.90;;
3841;SDS011;1936;47.074;15.336;2024-02-21T02:42:19;5.40;;;2.33;;
3841;SDS011;1936;47.074;15.336;2024-02-21T02:44:23;3.85;;;1.75;;
3841;SDS011;1936;47.074;15.336;2024-02-21T02:46:26;2.22;;;1.30;;
3841;SDS011;1936;47.074;15.336;2024-02-21T02:48:30;6.53;;;2.22;;
3841;SDS011;1936;47.074;15.336;2024-02-21T02:50:33;1.63;;;1.42;;
3841;SDS011;1936;47.074;15.336;2024-02-21T02:52:36;5.78;;;2.08;;
3841;SDS011;1936;47.074;15.336;2024-02-21T02:54:39;7.90;;;1.67;;
3841;SDS011;1936;47.074;15.336;2024-02-21T02:56:44;13.23;;;3.05;;
3841;SDS011;1936;47.074;15.336;2024-02-21T02:58:48;2.28;;;1.48;;
3841;SDS011;1936;47.074;15.336;2024-02-21T03:00:51;6.43;;;2.00;;
3841;SDS011;1936;47.074;15.336;2024-02-21T03:02:55;1.90;;;1.42;;
3841;SDS011;1936;47.074;15.336;2024-02-21T03:04:57;1.52;;;1.42;;
3841;SDS011;1936;47.074;15.336;2024-02-21T03:07:00;5.53;;;1.77;;
3841;SDS011;1936;47.074;15.336;2024-02-21T03:09:04;4.07;;;1.70;;
3841;SDS011;1936;47.074;15.336;2024-02-21T03:11:10;1.52;;;1.20;;
3841;SDS011;1936;47.074;15.336;2024-02-21T03:13:15;1.83;;;1.40;;
3841;SDS011;1936;47.074;15.336;2024-02-21T03:15:19;5.07;;;2.00;;
3841;SDS011;1936;47.074;15.336;2024-02-21T03:17:22;2.53;;;1.25;;
3841;SDS011;1936;47.074;15.336;2024-02-21T03:19:26;3.10;;;1.85;;
3841;SDS011;1936;47.074;15.336;2024-02-21T03:21:29;6.43;;;1.88;;
3841;SDS011;1936;47.074;15.336;2024-02-21T03:23:33;3.33;;;1.63;;
3841;SDS011;1936;47.074;15.336;2024-02-21T03:25:36;1.30;;;1.05;;
3841;SDS011;1936;47.074;15.336;2024-02-21T03:27:40;2.30;;;1.85;;
3841;SDS011;1936;47.074;15.336;2024-02-21T03:29:46;1.73;;;1.08;;
3841;SDS011;1936;47.074;15.336;2024-02-21T03:31:48;3.88;;;1.38;;
3841;SDS011;1936;47.074;15.336;2024-02-21T03:33:52;3.97;;;1.83;;
3841;SDS011;1936;47.074;15.336;2024-02-21T03:35:55;3.17;;;1.55;;
3841;SDS011;1936;47.074;15.336;2024-02-21T03:37:59;3.60;;;1.40;;
3841;SDS011;1936;47.074;15.336;2024-02-21T03:40:06;11.18;;;1.63;;
3841;SDS011;1936;47.074;15.336;2024-02-21T03:42:10;3.20;;;1.52;;
3841;SDS011;1936;47.074;15.336;2024-02-21T03:44:13;4.55;;;1.75;;
3841;SDS011;1936;47.074;15.336;2024-02-21T03:46:17;5.97;;;2.30;;
3841;SDS011;1936;47.074;15.336;2024-02-21T03:48:21;4.38;;;2.05;;
3841;SDS011;1936;47.074;15.336;2024-02-21T03:50:24;7.55;;;1.73;;
3841;SDS011;1936;47.074;15.336;2024-02-21T03:52:29;6.43;;;2.00;;
3841;SDS011;1936;47.074;15.336;2024-02-21T03:54:32;1.48;;;1.23;;
3841;SDS011;1936;47.074;15.336;2024-02-21T03:56:36;3.53;;;2.25;;
3841;SDS011;1936;47.074;15.336;2024-02-21T03:58:41;2.65;;;1.30;;
3841;SDS011;1936;47.074;15.336;2024-02-21T04:00:44;2.28;;;1.35;;
3841;SDS011;1936;47.074;15.336;2024-02-21T04:02:50;2.60;;;1.20;;
3841;SDS011;1936;47.074;15.336;2024-02-21T04:04:53;4.28;;;1.33;;
3841;SDS011;1936;47.074;15.336;2024-02-21T04:06:56;3.22;;;1.38;;
3841;SDS011;1936;47.074;15.336;2024-02-21T04:08:59;3.35;;;1.30;;
3841;SDS011;1936;47.074;15.336;2024-02-21T04:11:03;2.15;;;1.23;;
3841;SDS011;1936;47.074;15.336;2024-02-21T04:13:06;2.55;;;1.25;;
3841;SDS011;1936;47.074;15.336;2024-02-21T04:15:10;5.32;;;2.10;;
3841;SDS011;1936;47.074;15.336;2024-02-21T04:17:12;1.42;;;1.10;;
3841;SDS011;1936;47.074;15.336;2024-02-21T04:19:17;1.60;;;1.10;;
3841;SDS011;1936;47.074;15.336;2024-02-21T04:21:21;1.92;;;1.50;;
3841;SDS011;1936;47.074;15.336;2024-02-21T04:23:24;4.80;;;1.42;;
3841;SDS011;1936;47.074;15.336;2024-02-21T04:25:28;2.55;;;1.33;;
3841;SDS011;1936;47.074;15.336;2024-02-21T04:27:31;1.23;;;0.98;;
3841;SDS011;1936;47.074;15.336;2024-02-21T04:29:35;3.15;;;1.25;;
3841;SDS011;1936;47.074;15.336;2024-02-21T04:31:39;1.80;;;0.90;;
3841;SDS011;1936;47.074;15.336;2024-02-21T04:33:42;3.90;;;1.48;;
3841;SDS011;1936;47.074;15.336;2024-02-21T04:35:47;1.63;;;1.52;;
3841;SDS011;1936;47.074;15.336;2024-02-21T04:37:51;2.05;;;1.40;;
3841;SDS011;1936;47.074;15.336;2024-02-21T04:39:54;2.75;;;1.52;;
3841;SDS011;1936;47.074;15.336;2024-02-21T04:41:58;3.65;;;1.05;;
3841;SDS011;1936;47.074;15.336;2024-02-21T04:44:02;1.75;;;1.15;;
3841;SDS011;1936;47.074;15.336;2024-02-21T04:46:06;1.77;;;1.23;;
3841;SDS011;1936;47.074;15.336;2024-02-21T04:48:10;3.80;;;1.17;;
3841;SDS011;1936;47.074;15.336;2024-02-21T04:50:13;2.25;;;1.30;;
3841;SDS011;1936;47.074;15.336;2024-02-21T04:52:18;2.63;;;1.00;;
3841;SDS011;1936;47.074;15.336;2024-02-21T04:54:22;2.00;;;1.20;;
3841;SDS011;1936;47.074;15.336;2024-02-21T04:56:25;5.28;;;1.65;;
3841;SDS011;1936;47.074;15.336;2024-02-21T04:58:28;3.08;;;1.50;;
3841;SDS011;1936;47.074;15.336;2024-02-21T05:00:32;4.40;;;2.50;;
3841;SDS011;1936;47.074;15.336;2024-02-21T05:02:36;2.13;;;1.75;;
3841;SDS011;1936;47.074;15.336;2024-02-21T05:04:40;2.05;;;1.70;;
3841;SDS011;1936;47.074;15.336;2024-02-21T05:06:43;4.55;;;2.40;;
3841;SDS011;1936;47.074;15.336;2024-02-21T05:08:48;5.50;;;2.60;;
3841;SDS011;1936;47.074;15.336;2024-02-21T05:10:52;1.77;;;1.58;;
3841;SDS011;1936;47.074;15.336;2024-02-21T05:12:57;4.63;;;2.20;;
3841;SDS011;1936;47.074;15.336;2024-02-21T05:15:00;2.17;;;1.80;;
3841;SDS011;1936;47.074;15.336;2024-02-21T05:17:04;4.18;;;1.95;;
3841;SDS011;1936;47.074;15.336;2024-02-21T05:19:08;3.15;;;2.00;;
3841;SDS011;1936;47.074;15.336;2024-02-21T05:21:11;1.77;;;1.30;;
3841;SDS011;1936;47.074;15.336;2024-02-21T05:23:14;4.05;;;2.40;;
3841;SDS011;1936;47.074;15.336;2024-02-21T05:25:19;4.53;;;2.90;;
3841;SDS011;1936;47.074;15.336;2024-02-21T05:27:21;7.68;;;2.92;;
3841;SDS011;1936;47.074;15.336;2024-02-21T05:29:25;7.50;;;3.05;;
3841;SDS011;1936;47.074;15.336;2024-02-21T05:31:33;3.30;;;2.10;;
3841;SDS011;1936;47.074;15.336;2024-02-21T05:33:57;4.60;;;1.75;;
3841;SDS011;1936;47.074;15.336;2024-02-21T05:36:04;4.90;;;2.00;;
3841;SDS011;1936;47.074;15.336;2024-02-21T05:38:08;3.80;;;1.70;;
3841;SDS011;1936;47.074;15.336;2024-02-21T05:40:13;2.70;;;1.85;;
3841;SDS011;1936;47.074;15.336;2024-02-21T05:42:18;8.18;;;2.40;;
3841;SDS011;1936;47.074;15.336;2024-02-21T05:44:21;4.70;;;2.13;;
3841;SDS011;1936;47.074;15.336;2024-02-21T05:46:25;3.75;;;2.30;;
3841;SDS011;1936;47.074;15.336;2024-02-21T05:48:29;2.33;;;2.05;;
3841;SDS011;1936;47.074;15.336;2024-02-21T05:50:36;4.85;;;1.92;;
3841;SDS011;1936;47.074;15.336;2024-02-21T05:52:39;5.68;;;1.92;;
3841;SDS011;1936;47.074;15.336;2024-02-21T05:54:43;5.45;;;2.63;;
3841;SDS011;1936;47.074;15.336;2024-02-21T05:56:49;3.75;;;1.95;;
3841;SDS011;1936;47.074;15.336;2024-02-21T05:58:55;7.70;;;2.08;;
3841;SDS011;1936;47.074;15.336;2024-02-21T06:00:58;2.63;;;1.98;;
3841;SDS011;1936;47.074;15.336;2024-02-21T06:03:03;4.30;;;1.73;;
3841;SDS011;1936;47.074;15.336;2024-02-21T06:05:06;2.63;;;1.60;;
3841;SDS011;1936;47.074;15.336;2024-02-21T06:07:10;4.63;;;1.48;;
3841;SDS011;1936;47.074;15.336;2024-02-21T06:09:15;2.90;;;1.60;;
3841;SDS011;1936;47.074;15.336;2024-02-21T06:11:18;1.80;;;1.67;;
3841;SDS011;1936;47.074;15.336;2024-02-21T06:13:23;3.35;;;1.65;;
3841;SDS011;1936;47.074;15.336;2024-02-21T06:15:28;3.63;;;1.40;;
3841;SDS011;1936;47.074;15.336;2024-02-21T06:17:31;3.65;;;1.90;;
3841;SDS011;1936;47.074;15.336;2024-02-21T06:19:35;2.95;;;1.55;;
3841;SDS011;1936;47.074;15.336;2024-02-21T06:21:39;4.25;;;1.20;;
3841;SDS011;1936;47.074;15.336;2024-02-21T06:23:42;2.10;;;1.40;;
3841;SDS011;1936;47.074;15.336;2024-02-21T06:25:45;2.58;;;1.63;;
3841;SDS011;1936;47.074;15.336;2024-02-21T06:27:49;5.05;;;2.40;;
3841;SDS011;1936;47.074;15.336;2024-02-21T06:29:53;2.33;;;1.92;;
3841;SDS011;1936;47.074;15.336;2024-02-21T06:31:58;2.38;;;2.15;;
3841;SDS011;1936;47.074;15.336;2024-02-21T06:34:01;3.00;;;2.15;;
3841;SDS011;1936;47.074;15.336;2024-02-21T06:36:06;2.63;;;2.42;;
3841;SDS011;1936;47.074;15.336;2024-02-21T06:38:08;2.65;;;2.30;;
3841;SDS011;1936;47.074;15.336;2024-02-21T06:40:12;3.05;;;2.15;;
3841;SDS011;1936;47.074;15.336;2024-02-21T06:42:15;2.50;;;2.28;;
3841;SDS011;1936;47.074;15.336;2024-02-21T06:44:19;2.35;;;2.05;;
3841;SDS011;1936;47.074;15.336;2024-02-21T06:46:24;3.78;;;2.30;;
3841;SDS011;1936;47.074;15.336;2024-02-21T06:48:29;3.30;;;2.90;;
3841;SDS011;1936;47.074;15.336;2024-02-21T06:50:33;3.03;;;2.20;;
3841;SDS011;1936;47.074;15.336;2024-02-21T06:52:36;3.30;;;2.10;;
3841;SDS011;1936;47.074;15.336;2024-02-21T06:54:40;2.92;;;2.35;;
3841;SDS011;1936;47.074;15.336;2024-02-21T06:56:43;6.90;;;2.05;;
3841;SDS011;1936;47.074;15.336;2024-02-21T06:58:47;1.70;;;1.30;;
3841;SDS011;1936;47.074;15.336;2024-02-21T07:00:50;2.75;;;1.50;;
3841;SDS011;1936;47.074;15.336;2024-02-21T07:02:54;12.55;;;2.08;;
3841;SDS011;1936;47.074;15.336;2024-02-21T07:04:59;4.18;;;1.40;;
3841;SDS011;1936;47.074;15.336;2024-02-21T07:07:02;1.98;;;1.20;;
3841;SDS011;1936;47.074;15.336;2024-02-21T07:09:06;2.20;;;1.75;;
3841;SDS011;1936;47.074;15.336;2024-02-21T07:11:10;2.80;;;1.08;;
3841;SDS011;1936;47.074;15.336;2024-02-21T07:13:15;1.55;;;0.93;;
3841;SDS011;1936;47.074;15.336;2024-02-21T07:15:19;2.55;;;2.08;;
3841;SDS011;1936;47.074;15.336;2024-02-21T07:17:23;3.97;;;1.20;;
3841;SDS011;1936;47.074;15.336;2024-02-21T07:19:27;10.10;;;1.98;;
3841;SDS011;1936;47.074;15.336;2024-02-21T07:21:32;6.88;;;1.83;;
3841;SDS011;1936;47.074;15.336;2024-02-21T07:23:35;2.15;;;1.60;;
3841;SDS011;1936;47.074;15.336;2024-02-21T07:25:38;6.68;;;2.10;;
3841;SDS011;1936;47.074;15.336;2024-02-21T07:27:42;2.10;;;1.33;;
3841;SDS011;1936;47.074;15.336;2024-02-21T07:29:46;1.75;;;1.10;;
3841;SDS011;1936;47.074;15.336;2024-02-21T07:31:50;2.50;;;1.33;;
3841;SDS011;1936;47.074;15.336;2024-02-21T07:33:55;3.20;;;1.90;;
3841;SDS011;1936;47.074;15.336;2024-02-21T07:35:58;3.00;;;1.38;;
3841;SDS011;1936;47.074;15.336;2024-02-21T07:38:03;3.05;;;1.52;;
3841;SDS011;1936;47.074;15.336;2024-02-21T07:40:11;2.17;;;1.17;;
3841;SDS011;1936;47.074;15.336;2024-02-21T07:42:16;1.35;;;1.17;;
3841;SDS011;1936;47.074;15.336;2024-02-21T07:44:19;4.20;;;2.00;;
3841;SDS011;1936;47.074;15.336;2024-02-21T07:46:23;3.30;;;1.55;;
3841;SDS011;1936;47.074;15.336;2024-02-21T07:48:26;2.67;;;1.30;;
3841;SDS011;1936;47.074;15.336;2024-02-21T07:50:33;3.50;;;1.40;;
3841;SDS011;1936;47.074;15.336;2024-02-21T07:52:36;6.32;;;1.73;;
3841;SDS011;1936;47.074;15.336;2024-02-21T07:54:41;5.63;;;1.73;;
3841;SDS011;1936;47.074;15.336;2024-02-21T07:56:45;3.70;;;1.70;;
3841;SDS011;1936;47.074;15.336;2024-02-21T07:58:49;2.00;;;1.80;;
3841;SDS011;1936;47.074;15.336;2024-02-21T08:00:52;10.80;;;2.00;;
3841;SDS011;1936;47.074;15.336;2024-02-21T08:02:55;1.73;;;1.40;;
3841;SDS011;1936;47.074;15.336;2024-02-21T08:04:58;2.00;;;1.67;;
3841;SDS011;1936;47.074;15.336;2024-02-21T08:07:02;4.53;;;1.63;;
3841;SDS011;1936;47.074;15.336;2024-02-21T08:09:06;4.60;;;1.80;;
3841;SDS011;1936;47.074;15.336;2024-02-21T08:11:11;6.60;;;2.03;;
3841;SDS011;1936;47.074;15.336;2024-02-21T08:13:15;2.20;;;1.80;;
3841;SDS011;1936;47.074;15.336;2024-02-21T08:15:18;4.70;;;1.73;;
3841;SDS011;1936;47.074;15.336;2024-02-21T08:17:25;2.67;;;2.00;;
3841;SDS011;1936;47.074;15.336;2024-02-21T08:19:29;2.43;;;1.20;;
3841;SDS011;1936;47.074;15.336;2024-02-21T08:21:32;2.80;;;1.10;;
3841;SDS011;1936;47.074;15.336;2024-02-21T08:23:36;3.33;;;1.90;;
3841;SDS011;1936;47.074;15.336;2024-02-21T08:25:39;6.17;;;1.53;;
3841;SDS011;1936;47.074;15.336;2024-02-21T08:27:44;6.53;;;1.77;;
3841;SDS011;1936;47.074;15.336;2024-02-21T08:29:48;2.60;;;1.30;;
3841;SDS011;1936;47.074;15.336;2024-02-21T08:31:52;4.80;;;3.40;;
3841;SDS011;1936;47.074;15.336;2024-02-21T08:33:57;3.63;;;1.53;;
3841;SDS011;1936;47.074;15.336;2024-02-21T08:36:04;2.17;;;1.60;;
3841;SDS011;1936;47.074;15.336;2024-02-21T08:38:10;3.60;;;1.80;;
3841;SDS011;1936;47.074;15.336;2024-02-21T08:40:13;4.70;;;1.70;;
3841;SDS011;1936;47.074;15.336;2024-02-21T08:42:19;1.53;;;1.00;;
3841;SDS011;1936;47.074;15.336;2024-02-21T08:44:24;2.43;;;1.20;;
3841;SDS011;1936;47.074;15.336;2024-02-21T08:46:29;5.07;;;1.30;;
3841;SDS011;1936;47.074;15.336;2024-02-21T08:48:32;6.97;;;2.50;;
3841;SDS011;1936;47.074;15.336;2024-02-21T08:50:36;1.43;;;0.93;;
3841;SDS011;1936;47.074;15.336;2024-02-21T08:52:40;1.23;;;1.10;;
3841;SDS011;1936;47.074;15.336;2024-02-21T08:54:44;4.63;;;1.07;;
3841;SDS011;1936;47.074;15.336;2024-02-21T08:56:47;2.10;;;0.87;;
3841;SDS011;1936;47.074;15.336;2024-02-21T08:58:51;4.30;;;1.40;;
3841;SDS011;1936;47.074;15.336;2024-02-21T09:00:55;2.40;;;1.63;;
3841;SDS011;1936;47.074;15.336;2024-02-21T09:02:59;5.17;;;1.30;;
3841;SDS011;1936;47.074;15.336;2024-02-21T09:05:03;2.90;;;1.57;;
3841;SDS011;1936;47.074;15.336;2024-02-21T09:07:07;2.23;;;1.13;;
3841;SDS011;1936;47.074;15.336;2024-02-21T09:09:11;1.90;;;1.10;;
3841;SDS011;1936;47.074;15.336;2024-02-21T09:11:14;1.70;;;1.27;;
3841;SDS011;1936;47.074;15.336;2024-02-21T09:13:18;2.50;;;1.07;;
3841;SDS011;1936;47.074;15.336;2024-02-21T09:15:22;2.97;;;0.90;;
3841;SDS011;1936;47.074;15.336;2024-02-21T09:17:28;2.73;;;1.30;;
3841;SDS011;1936;47.074;15.336;2024-02-21T09:19:32;1.57;;;1.00;;
3841;SDS011;1936;47.074;15.336;2024-02-21T09:21:36;2.23;;;1.20;;
3841;SDS011;1936;47.074;15.336;2024-02-21T09:23:40;3.87;;;1.60;;
3841;SDS011;1936;47.074;15.336;2024-02-21T09:25:43;2.13;;;1.90;;
3841;SDS011;1936;47.074;15.336;2024-02-21T09:27:47;2.50;;;1.03;;
3841;SDS011;1936;47.074;15.336;2024-02-21T09:29:52;2.60;;;1.60;;
3841;SDS011;1936;47.074;15.336;2024-02-21T09:31:56;2.90;;;1.17;;
3841;SDS011;1936;47.074;15.336;2024-02-21T09:34:01;1.47;;;1.10;;
3841;SDS011;1936;47.074;15.336;2024-02-21T09:36:05;2.03;;;1.10;;
3841;SDS011;1936;47.074;15.336;2024-02-21T09:38:09;9.63;;;2.27;;
3841;SDS011;1936;47.074;15.336;2024-02-21T09:40:12;1.57;;;1.17;;
3841;SDS011;1936;47.074;15.336;2024-02-21T09:42:20;1.50;;;1.27;;
3841;SDS011;1936;47.074;15.336;2024-02-21T09:44:24;1.23;;;1.00;;
3841;SDS011;1936;47.074;15.336;2024-02-21T09:46:36;3.07;;;1.37;;
3841;SDS011;1936;47.074;15.336;2024-02-21T09:48:52;2.20;;;1.50;;
3841;SDS011;1936;47.074;15.336;2024-02-21T09:51:08;1.80;;;1.10;;
3841;SDS011;1936;47.074;15.336;2024-02-21T09:53:13;5.93;;;1.40;;
3841;SDS011;1936;47.074;15.336;2024-02-21T09:55:16;4.07;;;1.57;;
3841;SDS011;1936;47.074;15.336;2024-02-21T09:57:21;2.70;;;1.03;;
3841;SDS011;1936;47.074;15.336;2024-02-21T09:59:26;1.70;;;1.10;;
3841;SDS011;1936;47.074;15.336;2024-02-21T10:01:31;2.70;;;1.10;;
3841;SDS011;1936;47.074;15.336;2024-02-21T10:03:36;4.33;;;1.37;;
3841;SDS011;1936;47.074;15.336;2024-02-21T10:05:45;2.80;;;1.00;;
3841;SDS011;1936;47.074;15.336;2024-02-21T10:07:53;4.13;;;1.00;;
3841;SDS011;1936;47.074;15.336;2024-02-21T10:10:01;3.47;;;1.73;;
3841;SDS011;1936;47.074;15.336;2024-02-21T10:12:08;4.23;;;1.60;;
3841;SDS011;1936;47.074;15.336;2024-02-21T10:14:12;2.83;;;1.47;;
3841;SDS011;1936;47.074;15.336;2024-02-21T10:16:17;1.83;;;1.37;;
3841;SDS011;1936;47.074;15.336;2024-02-21T10:18:20;3.87;;;1.50;;
3841;SDS011;1936;47.074;15.336;2024-02-21T10:20:23;4.10;;;2.10;;
3841;SDS011;1936;47.074;15.336;2024-02-21T10:22:27;5.90;;;1.57;;
3841;SDS011;1936;47.074;15.336;2024-02-21T10:24:33;3.93;;;1.47;;
3841;SDS011;1936;47.074;15.336;2024-02-21T10:26:39;1.80;;;1.33;;
3841;SDS011;1936;47.074;15.336;2024-02-21T10:28:43;7.47;;;1.87;;
3841;SDS011;1936;47.074;15.336;2024-02-21T10:30:51;3.47;;;1.70;;
3841;SDS011;1936;47.074;15.336;2024-02-21T10:32:55;5.83;;;1.40;;
3841;SDS011;1936;47.074;15.336;2024-02-21T10:35:03;5.50;;;1.63;;
3841;SDS011;1936;47.074;15.336;2024-02-21T10:37:08;5.00;;;1.50;;
3841;SDS011;1936;47.074;15.336;2024-02-21T10:39:12;3.10;;;1.40;;
3841;SDS011;1936;47.074;15.336;2024-02-21T10:41:18;3.67;;;1.20;;
3841;SDS011;1936;47.074;15.336;2024-02-21T10:43:23;2.93;;;1.87;;
3841;SDS011;1936;47.074;15.336;2024-02-21T10:45:29;2.50;;;1.60;;
3841;SDS011;1936;47.074;15.336;2024-02-21T10:47:34;3.23;;;1.33;;
3841;SDS011;1936;47.074;15.336;2024-02-21T10:49:41;3.30;;;1.70;;
3841;SDS011;1936;47.074;15.336;2024-02-21T10:51:49;3.97;;;1.40;;
3841;SDS011;1936;47.074;15.336;2024-02-21T10:53:57;5.83;;;2.10;;
3841;SDS011;1936;47.074;15.336;2024-02-21T10:56:19;3.27;;;2.13;;
3841;SDS011;1936;47.074;15.336;2024-02-21T10:58:29;1.77;;;1.37;;
3841;SDS011;1936;47.074;15.336;2024-02-21T11:00:34;4.33;;;1.53;;
3841;SDS011;1936;47.074;15.336;2024-02-21T11:02:39;2.30;;;1.60;;
3841;SDS011;1936;47.074;15.336;2024-02-21T11:04:44;3.20;;;1.27;;
3841;SDS011;1936;47.074;15.336;2024-02-21T11:06:49;3.17;;;1.93;;
3841;SDS011;1936;47.074;15.336;2024-02-21T11:09:01;3.90;;;1.50;;
3841;SDS011;1936;47.074;15.336;2024-02-21T11:11:06;4.00;;;1.27;;
3841;SDS011;1936;47.074;15.336;2024-02-21T11:13:16;6.00;;;2.10;;
3841;SDS011;1936;47.074;15.336;2024-02-21T11:15:24;6.13;;;1.90;;
3841;SDS011;1936;47.074;15.336;2024-02-21T11:17:29;4.73;;;2.27;;
3841;SDS011;1936;47.074;15.336;2024-02-21T11:19:32;3.33;;;2.13;;
3841;SDS011;1936;47.074;15.336;2024-02-21T11:21:36;5.87;;;2.50;;
3841;SDS011;1936;47.074;15.336;2024-02-21T11:23:39;10.20;;;3.50;;
3841;SDS011;1936;47.074;15.336;2024-02-21T11:25:43;5.10;;;1.90;;
3841;SDS011;1936;47.074;15.336;2024-02-21T11:27:47;3.97;;;1.73;;
3841;SDS011;1936;47.074;15.336;2024-02-21T11:29:55;6.60;;;2.10;;
3841;SDS011;1936;47.074;15.336;2024-02-21T11:32:00;7.23;;;1.97;;
3841;SDS011;1936;47.074;15.336;2024-02-21T11:34:08;4.93;;;2.70;;
3841;SDS011;1936;47.074;15.336;2024-02-21T11:36:21;2.67;;;1.70;;
3841;SDS011;1936;47.074;15.336;2024-02-21T11:38:27;3.80;;;1.87;;
3841;SDS011;1936;47.074;15.336;2024-02-21T11:40:30;1.97;;;1.33;;
3841;SDS011;1936;47.074;15.336;2024-02-21T11:42:34;2.63;;;1.37;;
3841;SDS011;1936;47.074;15.336;2024-02-21T11:44:38;4.80;;;2.30;;
3841;SDS011;1936;47.074;15.336;2024-02-21T11:46:47;6.87;;;1.77;;
3841;SDS011;1936;47.074;15.336;2024-02-21T11:48:51;2.80;;;1.57;;
3841;SDS011;1936;47.074;15.336;2024-02-21T11:50:55;3.70;;;1.40;;
3841;SDS011;1936;47.074;15.336;2024-02-21T11:52:59;2.80;;;1.30;;
3841;SDS011;1936;47.074;15.336;2024-02-21T11:55:03;6.33;;;1.47;;
3841;SDS011;1936;47.074;15.336;2024-02-21T11:57:12;3.73;;;1.57;;
3841;SDS011;1936;47.074;15.336;2024-02-21T11:59:15;2.53;;;1.50;;
3841;SDS011;1936;47.074;15.336;2024-02-21T12:01:19;1.90;;;1.50;;
3841;SDS011;1936;47.074;15.336;2024-02-21T12:03:24;5.17;;;1.60;;
3841;SDS011;1936;47.074;15.336;2024-02-21T12:05:27;2.30;;;1.17;;
3841;SDS011;1936;47.074;15.336;2024-02-21T12:07:31;3.60;;;1.03;;
3841;SDS011;1936;47.074;15.336;2024-02-21T12:09:35;2.63;;;1.13;;
3841;SDS011;1936;47.074;15.336;2024-02-21T12:11:38;2.43;;;0.90;;
3841;SDS011;1936;47.074;15.336;2024-02-21T12:13:42;2.87;;;1.77;;
3841;SDS011;1936;47.074;15.336;2024-02-21T12:15:47;2.80;;;1.53;;
3841;SDS011;1936;47.074;15.336;2024-02-21T12:17:51;6.10;;;2.50;;
3841;SDS011;1936;47.074;15.336;2024-02-21T12:19:56;4.37;;;1.60;;
3841;SDS011;1936;47.074;15.336;2024-02-21T12:22:00;4.07;;;1.70;;
3841;SDS011;1936;47.074;15.336;2024-02-21T12:24:11;4.20;;;1.20;;
3841;SDS011;1936;47.074;15.336;2024-02-21T12:26:14;2.93;;;1.40;;
3841;SDS011;1936;47.074;15.336;2024-02-21T12:28:18;1.60;;;1.50;;
3841;SDS011;1936;47.074;15.336;2024-02-21T12:30:23;4.10;;;2.03;;
3841;SDS011;1936;47.074;15.336;2024-02-21T12:32:27;2.50;;;1.30;;
3841;SDS011;1936;47.074;15.336;2024-02-21T12:34:30;5.07;;;1.87;;
3841;SDS011;1936;47.074;15.336;2024-02-21T12:36:54;11.10;;;2.90;;
3841;SDS011;1936;47.074;15.336;2024-02-21T12:38:58;3.20;;;2.03;;
3841;SDS011;1936;47.074;15.336;2024-02-21T12:41:03;3.80;;;2.30;;